sensor_id;sensor_type;location;lat;lon;timestamp;temperature;humidity
65864;SHT30;52639;51.180;20.460;2022-09-09T00:02:04;13.70;88.63
65864;SHT30;52639;51.180;20.460;2022-09-09T00:06:11;13.75;85.71
65864;SHT30;52639;51.180;20.460;2022-09-09T00:10:22;13.81;90.07
65864;SHT30;52639;51.180;20.460;2022-09-09T00:14:37;13.81;89.46
65864;SHT30;52639;51.180;20.460;2022-09-09T00:18:52;13.81;86.74
65864;SHT30;52639;51.180;20.460;2022-09-09T00:23:04;13.88;86.59
65864;SHT30;52639;51.180;20.460;2022-09-09T00:27:15;13.89;86.38
65864;SHT30;52639;51.180;20.460;2022-09-09T00:31:22;13.92;92.21
65864;SHT30;52639;51.180;20.460;2022-09-09T00:35:30;13.91;87.12
65864;SHT30;52639;51.180;20.460;2022-09-09T00:39:37;13.92;90.47
65864;SHT30;52639;51.180;20.460;2022-09-09T00:43:41;13.91;88.28
65864;SHT30;52639;51.180;20.460;2022-09-09T00:47:46;13.95;87.51
65864;SHT30;52639;51.180;20.460;2022-09-09T00:51:59;13.94;85.89
65864;SHT30;52639;51.180;20.460;2022-09-09T00:56:12;13.98;85.99
65864;SHT30;52639;51.180;20.460;2022-09-09T01:00:21;13.98;85.52
65864;SHT30;52639;51.180;20.460;2022-09-09T01:04:29;14.02;85.44
65864;SHT30;52639;51.180;20.460;2022-09-09T01:08:46;14.05;86.48
65864;SHT30;52639;51.180;20.460;2022-09-09T01:12:54;14.02;86.12
65864;SHT30;52639;51.180;20.460;2022-09-09T01:17:03;14.07;85.63
65864;SHT30;52639;51.180;20.460;2022-09-09T01:21:14;14.05;86.60
65864;SHT30;52639;51.180;20.460;2022-09-09T01:29:48;14.01;87.89
65864;SHT30;52639;51.180;20.460;2022-09-09T01:33:51;14.00;87.79
65864;SHT30;52639;51.180;20.460;2022-09-09T01:37:53;14.04;90.63
65864;SHT30;52639;51.180;20.460;2022-09-09T01:41:56;14.01;90.59
65864;SHT30;52639;51.180;20.460;2022-09-09T01:46:01;14.04;87.33
65864;SHT30;52639;51.180;20.460;2022-09-09T01:50:04;14.05;87.13
65864;SHT30;52639;51.180;20.460;2022-09-09T01:54:07;14.07;88.14
65864;SHT30;52639;51.180;20.460;2022-09-09T01:58:20;14.07;86.95
65864;SHT30;52639;51.180;20.460;2022-09-09T02:02:30;14.08;87.04
65864;SHT30;52639;51.180;20.460;2022-09-09T02:06:36;14.11;86.51
65864;SHT30;52639;51.180;20.460;2022-09-09T02:10:45;14.11;86.49
65864;SHT30;52639;51.180;20.460;2022-09-09T02:14:55;14.12;86.75
65864;SHT30;52639;51.180;20.460;2022-09-09T02:19:01;14.12;87.99
65864;SHT30;52639;51.180;20.460;2022-09-09T02:23:07;14.12;87.85
65864;SHT30;52639;51.180;20.460;2022-09-09T02:27:11;14.14;88.05
65864;SHT30;52639;51.180;20.460;2022-09-09T02:31:17;14.18;86.86
65864;SHT30;52639;51.180;20.460;2022-09-09T02:35:23;14.21;87.00
65864;SHT30;52639;51.180;20.460;2022-09-09T02:39:27;14.22;86.56
65864;SHT30;52639;51.180;20.460;2022-09-09T02:43:31;14.29;86.41
65864;SHT30;52639;51.180;20.460;2022-09-09T02:47:35;14.38;86.42
65864;SHT30;52639;51.180;20.460;2022-09-09T02:51:51;14.35;86.52
65864;SHT30;52639;51.180;20.460;2022-09-09T02:55:59;14.45;86.49
65864;SHT30;52639;51.180;20.460;2022-09-09T03:00:04;14.39;86.69
65864;SHT30;52639;51.180;20.460;2022-09-09T03:04:06;14.39;86.78
65864;SHT30;52639;51.180;20.460;2022-09-09T03:08:11;14.41;86.86
65864;SHT30;52639;51.180;20.460;2022-09-09T03:12:14;14.42;86.89
65864;SHT30;52639;51.180;20.460;2022-09-09T03:16:17;14.46;86.97
65864;SHT30;52639;51.180;20.460;2022-09-09T03:20:19;14.48;87.06
65864;SHT30;52639;51.180;20.460;2022-09-09T03:24:23;14.51;87.11
65864;SHT30;52639;51.180;20.460;2022-09-09T03:28:26;14.62;87.01
65864;SHT30;52639;51.180;20.460;2022-09-09T03:32:32;14.75;87.34
65864;SHT30;52639;51.180;20.460;2022-09-09T03:36:34;14.86;86.94
65864;SHT30;52639;51.180;20.460;2022-09-09T03:40:38;14.93;86.84
65864;SHT30;52639;51.180;20.460;2022-09-09T03:44:41;14.93;87.54
65864;SHT30;52639;51.180;20.460;2022-09-09T03:48:45;14.90;87.46
65864;SHT30;52639;51.180;20.460;2022-09-09T03:52:47;14.89;88.91
65864;SHT30;52639;51.180;20.460;2022-09-09T03:56:51;14.89;88.61
65864;SHT30;52639;51.180;20.460;2022-09-09T04:00:55;14.85;88.80
65864;SHT30;52639;51.180;20.460;2022-09-09T04:04:58;14.85;89.34
65864;SHT30;52639;51.180;20.460;2022-09-09T04:09:00;14.77;90.99
65864;SHT30;52639;51.180;20.460;2022-09-09T04:13:05;14.73;90.24
65864;SHT30;52639;51.180;20.460;2022-09-09T04:17:08;14.66;91.00
65864;SHT30;52639;51.180;20.460;2022-09-09T04:21:12;14.58;90.14
65864;SHT30;52639;51.180;20.460;2022-09-09T04:25:15;14.61;89.41
65864;SHT30;52639;51.180;20.460;2022-09-09T04:29:19;14.53;89.97
65864;SHT30;52639;51.180;20.460;2022-09-09T04:33:23;14.56;89.14
65864;SHT30;52639;51.180;20.460;2022-09-09T04:37:27;14.58;88.91
65864;SHT30;52639;51.180;20.460;2022-09-09T04:41:29;14.58;88.54
65864;SHT30;52639;51.180;20.460;2022-09-09T04:45:34;14.61;89.34
65864;SHT30;52639;51.180;20.460;2022-09-09T04:49:37;14.63;89.53
65864;SHT30;52639;51.180;20.460;2022-09-09T04:53:40;14.63;89.30
65864;SHT30;52639;51.180;20.460;2022-09-09T04:57:42;14.66;88.70
65864;SHT30;52639;51.180;20.460;2022-09-09T05:01:46;14.73;89.05
65864;SHT30;52639;51.180;20.460;2022-09-09T05:05:49;14.71;88.92
65864;SHT30;52639;51.180;20.460;2022-09-09T05:09:52;14.71;89.06
65864;SHT30;52639;51.180;20.460;2022-09-09T05:13:55;14.65;89.39
65864;SHT30;52639;51.180;20.460;2022-09-09T05:18:00;14.79;89.04
65864;SHT30;52639;51.180;20.460;2022-09-09T05:22:03;14.95;88.96
65864;SHT30;52639;51.180;20.460;2022-09-09T05:26:09;14.97;88.39
65864;SHT30;52639;51.180;20.460;2022-09-09T05:30:13;15.02;88.38
65864;SHT30;52639;51.180;20.460;2022-09-09T05:34:18;15.14;88.45
65864;SHT30;52639;51.180;20.460;2022-09-09T05:38:21;15.24;88.76
65864;SHT30;52639;51.180;20.460;2022-09-09T05:42:25;15.37;88.57
65864;SHT30;52639;51.180;20.460;2022-09-09T05:46:31;15.46;88.04
65864;SHT30;52639;51.180;20.460;2022-09-09T05:50:35;15.64;87.69
65864;SHT30;52639;51.180;20.460;2022-09-09T05:54:38;15.61;88.78
65864;SHT30;52639;51.180;20.460;2022-09-09T05:58:41;15.60;88.62
65864;SHT30;52639;51.180;20.460;2022-09-09T06:02:50;15.75;87.98
65864;SHT30;52639;51.180;20.460;2022-09-09T06:06:56;15.81;88.34
65864;SHT30;52639;51.180;20.460;2022-09-09T06:11:01;15.74;89.05
65864;SHT30;52639;51.180;20.460;2022-09-09T06:15:07;15.82;88.38
65864;SHT30;52639;51.180;20.460;2022-09-09T06:19:09;16.02;88.01
65864;SHT30;52639;51.180;20.460;2022-09-09T06:23:15;16.00;88.07
65864;SHT30;52639;51.180;20.460;2022-09-09T06:27:17;16.08;88.20
65864;SHT30;52639;51.180;20.460;2022-09-09T06:31:22;16.26;87.84
65864;SHT30;52639;51.180;20.460;2022-09-09T06:35:27;16.41;88.16
65864;SHT30;52639;51.180;20.460;2022-09-09T06:39:32;16.51;87.90
65864;SHT30;52639;51.180;20.460;2022-09-09T06:43:36;16.60;88.16
65864;SHT30;52639;51.180;20.460;2022-09-09T06:47:39;17.17;86.94
65864;SHT30;52639;51.180;20.460;2022-09-09T06:51:43;17.47;86.48
65864;SHT30;52639;51.180;20.460;2022-09-09T06:55:49;20.09;80.33
65864;SHT30;52639;51.180;20.460;2022-09-09T06:59:52;18.50;85.48
65864;SHT30;52639;51.180;20.460;2022-09-09T07:03:58;19.68;83.19
65864;SHT30;52639;51.180;20.460;2022-09-09T07:08:01;18.66;86.40
65864;SHT30;52639;51.180;20.460;2022-09-09T07:12:06;18.01;87.72
65864;SHT30;52639;51.180;20.460;2022-09-09T07:16:10;18.50;86.56
65864;SHT30;52639;51.180;20.460;2022-09-09T07:20:28;18.74;85.48
65864;SHT30;52639;51.180;20.460;2022-09-09T07:24:30;25.12;69.46
65864;SHT30;52639;51.180;20.460;2022-09-09T07:28:34;23.03;76.51
65864;SHT30;52639;51.180;20.460;2022-09-09T07:32:37;21.42;81.66
65864;SHT30;52639;51.180;20.460;2022-09-09T07:36:40;22.26;80.07
65864;SHT30;52639;51.180;20.460;2022-09-09T07:40:48;22.61;78.74
65864;SHT30;52639;51.180;20.460;2022-09-09T07:44:52;20.60;83.79
65864;SHT30;52639;51.180;20.460;2022-09-09T07:48:57;21.28;80.92
65864;SHT30;52639;51.180;20.460;2022-09-09T07:52:59;20.76;81.27
65864;SHT30;52639;51.180;20.460;2022-09-09T07:57:04;23.06;75.61
65864;SHT30;52639;51.180;20.460;2022-09-09T08:01:11;25.75;68.80
65864;SHT30;52639;51.180;20.460;2022-09-09T08:05:18;28.06;63.57
65864;SHT30;52639;51.180;20.460;2022-09-09T08:09:23;23.95;75.61
65864;SHT30;52639;51.180;20.460;2022-09-09T08:13:29;21.34;82.27
65864;SHT30;52639;51.180;20.460;2022-09-09T08:17:34;20.34;84.11
65864;SHT30;52639;51.180;20.460;2022-09-09T08:21:43;21.63;79.38
65864;SHT30;52639;51.180;20.460;2022-09-09T08:25:45;20.72;80.91
65864;SHT30;52639;51.180;20.460;2022-09-09T08:29:49;20.28;81.07
65864;SHT30;52639;51.180;20.460;2022-09-09T08:33:56;22.67;73.45
65864;SHT30;52639;51.180;20.460;2022-09-09T08:38:02;28.23;59.78
65864;SHT30;52639;51.180;20.460;2022-09-09T08:42:30;27.52;62.76
65864;SHT30;52639;51.180;20.460;2022-09-09T08:46:44;23.22;76.84
65864;SHT30;52639;51.180;20.460;2022-09-09T08:50:51;20.87;81.90
65864;SHT30;52639;51.180;20.460;2022-09-09T08:55:03;20.06;81.89
65864;SHT30;52639;51.180;20.460;2022-09-09T08:59:16;24.57;67.82
65864;SHT30;52639;51.180;20.460;2022-09-09T09:03:27;30.08;54.48
65864;SHT30;52639;51.180;20.460;2022-09-09T09:07:46;32.71;50.87
65864;SHT30;52639;51.180;20.460;2022-09-09T09:11:53;31.65;54.04
65864;SHT30;52639;51.180;20.460;2022-09-09T09:16:16;30.81;54.94
65864;SHT30;52639;51.180;20.460;2022-09-09T09:20:26;24.33;70.25
65864;SHT30;52639;51.180;20.460;2022-09-09T09:24:42;21.81;74.80
65864;SHT30;52639;51.180;20.460;2022-09-09T09:28:48;21.18;74.90
65864;SHT30;52639;51.180;20.460;2022-09-09T09:32:53;29.28;52.43
65864;SHT30;52639;51.180;20.460;2022-09-09T09:37:13;30.87;48.58
65864;SHT30;52639;51.180;20.460;2022-09-09T09:41:31;27.75;55.74
65864;SHT30;52639;51.180;20.460;2022-09-09T09:45:43;25.00;62.62
65864;SHT30;52639;51.180;20.460;2022-09-09T09:49:52;23.00;67.70
65864;SHT30;52639;51.180;20.460;2022-09-09T09:54:06;22.42;68.56
65864;SHT30;52639;51.180;20.460;2022-09-09T09:58:15;22.98;66.15
65864;SHT30;52639;51.180;20.460;2022-09-09T10:02:21;23.21;65.66
65864;SHT30;52639;51.180;20.460;2022-09-09T10:06:33;24.90;61.76
65864;SHT30;52639;51.180;20.460;2022-09-09T10:10:50;25.61;60.77
65864;SHT30;52639;51.180;20.460;2022-09-09T10:15:02;25.39;60.34
65864;SHT30;52639;51.180;20.460;2022-09-09T10:19:13;25.01;61.86
65864;SHT30;52639;51.180;20.460;2022-09-09T10:23:25;24.80;61.57
65864;SHT30;52639;51.180;20.460;2022-09-09T10:27:35;23.65;64.28
65864;SHT30;52639;51.180;20.460;2022-09-09T10:31:52;22.98;65.64
65864;SHT30;52639;51.180;20.460;2022-09-09T10:36:09;22.67;65.93
65864;SHT30;52639;51.180;20.460;2022-09-09T10:40:24;22.56;65.68
65864;SHT30;52639;51.180;20.460;2022-09-09T10:44:53;22.53;65.35
65864;SHT30;52639;51.180;20.460;2022-09-09T10:49:08;22.37;65.44
65864;SHT30;52639;51.180;20.460;2022-09-09T10:53:31;23.31;63.15
65864;SHT30;52639;51.180;20.460;2022-09-09T10:57:40;24.13;61.19
65864;SHT30;52639;51.180;20.460;2022-09-09T11:01:48;23.69;62.58
65864;SHT30;52639;51.180;20.460;2022-09-09T11:05:59;23.08;64.16
65864;SHT30;52639;51.180;20.460;2022-09-09T11:10:06;22.88;64.16
65864;SHT30;52639;51.180;20.460;2022-09-09T11:14:19;23.18;63.80
65864;SHT30;52639;51.180;20.460;2022-09-09T11:18:24;23.03;64.39
65864;SHT30;52639;51.180;20.460;2022-09-09T11:22:32;22.66;64.70
65864;SHT30;52639;51.180;20.460;2022-09-09T11:26:43;23.00;63.56
65864;SHT30;52639;51.180;20.460;2022-09-09T11:30:58;22.40;65.03
65864;SHT30;52639;51.180;20.460;2022-09-09T11:35:21;21.88;66.02
65864;SHT30;52639;51.180;20.460;2022-09-09T11:44:16;21.69;66.04
65864;SHT30;52639;51.180;20.460;2022-09-09T11:48:25;21.55;65.99
65864;SHT30;52639;51.180;20.460;2022-09-09T11:52:37;21.86;64.95
65864;SHT30;52639;51.180;20.460;2022-09-09T11:56:44;22.06;64.63
65864;SHT30;52639;51.180;20.460;2022-09-09T12:00:49;22.17;64.58
65864;SHT30;52639;51.180;20.460;2022-09-09T12:04:59;22.76;63.42
65864;SHT30;52639;51.180;20.460;2022-09-09T12:09:29;23.20;62.55
65864;SHT30;52639;51.180;20.460;2022-09-09T12:13:35;22.96;63.18
65864;SHT30;52639;51.180;20.460;2022-09-09T12:17:45;22.26;65.01
65864;SHT30;52639;51.180;20.460;2022-09-09T12:21:56;22.09;65.24
65864;SHT30;52639;51.180;20.460;2022-09-09T12:26:11;22.30;64.81
65864;SHT30;52639;51.180;20.460;2022-09-09T12:30:22;22.59;64.08
65864;SHT30;52639;51.180;20.460;2022-09-09T12:34:37;22.28;64.73
65864;SHT30;52639;51.180;20.460;2022-09-09T12:38:41;21.85;65.72
65864;SHT30;52639;51.180;20.460;2022-09-09T12:42:44;21.38;66.29
65864;SHT30;52639;51.180;20.460;2022-09-09T12:46:49;21.17;66.69
65864;SHT30;52639;51.180;20.460;2022-09-09T12:50:52;21.00;66.61
65864;SHT30;52639;51.180;20.460;2022-09-09T12:55:04;21.04;66.42
65864;SHT30;52639;51.180;20.460;2022-09-09T12:59:22;21.31;66.01
65864;SHT30;52639;51.180;20.460;2022-09-09T13:03:27;21.66;65.62
65864;SHT30;52639;51.180;20.460;2022-09-09T13:07:32;22.26;64.80
65864;SHT30;52639;51.180;20.460;2022-09-09T13:11:36;22.20;66.35
65864;SHT30;52639;51.180;20.460;2022-09-09T13:15:49;22.66;65.65
65864;SHT30;52639;51.180;20.460;2022-09-09T13:19:59;22.50;65.82
65864;SHT30;52639;51.180;20.460;2022-09-09T13:24:26;22.22;66.10
65864;SHT30;52639;51.180;20.460;2022-09-09T13:28:33;22.02;66.42
65864;SHT30;52639;51.180;20.460;2022-09-09T13:32:36;21.83;66.74
65864;SHT30;52639;51.180;20.460;2022-09-09T13:36:40;21.63;67.29
65864;SHT30;52639;51.180;20.460;2022-09-09T13:40:59;21.48;67.68
65864;SHT30;52639;51.180;20.460;2022-09-09T13:45:14;21.17;68.14
65864;SHT30;52639;51.180;20.460;2022-09-09T13:49:21;20.94;68.35
65864;SHT30;52639;51.180;20.460;2022-09-09T13:53:27;20.83;68.24
65864;SHT30;52639;51.180;20.460;2022-09-09T13:57:33;20.77;68.25
65864;SHT30;52639;51.180;20.460;2022-09-09T14:01:37;20.83;67.92
65864;SHT30;52639;51.180;20.460;2022-09-09T14:05:43;20.94;67.89
65864;SHT30;52639;51.180;20.460;2022-09-09T14:09:48;21.10;67.80
65864;SHT30;52639;51.180;20.460;2022-09-09T14:13:53;21.28;67.71
65864;SHT30;52639;51.180;20.460;2022-09-09T14:17:55;21.34;67.73
65864;SHT30;52639;51.180;20.460;2022-09-09T14:22:00;21.42;67.71
65864;SHT30;52639;51.180;20.460;2022-09-09T14:26:04;21.34;68.47
65864;SHT30;52639;51.180;20.460;2022-09-09T14:30:10;21.08;68.75
65864;SHT30;52639;51.180;20.460;2022-09-09T14:34:13;21.00;68.92
65864;SHT30;52639;51.180;20.460;2022-09-09T14:38:16;20.84;69.29
65864;SHT30;52639;51.180;20.460;2022-09-09T14:42:20;20.83;69.62
65864;SHT30;52639;51.180;20.460;2022-09-09T14:46:23;20.57;70.28
65864;SHT30;52639;51.180;20.460;2022-09-09T14:50:26;20.39;70.57
65864;SHT30;52639;51.180;20.460;2022-09-09T14:54:29;20.13;71.05
65864;SHT30;52639;51.180;20.460;2022-09-09T14:58:33;19.98;71.32
65864;SHT30;52639;51.180;20.460;2022-09-09T15:02:36;19.81;71.87
65864;SHT30;52639;51.180;20.460;2022-09-09T15:06:39;19.65;72.15
65864;SHT30;52639;51.180;20.460;2022-09-09T15:10:43;19.50;72.55
65864;SHT30;52639;51.180;20.460;2022-09-09T15:14:47;19.39;72.65
65864;SHT30;52639;51.180;20.460;2022-09-09T15:18:52;19.30;72.98
65864;SHT30;52639;51.180;20.460;2022-09-09T15:22:55;19.17;73.58
65864;SHT30;52639;51.180;20.460;2022-09-09T15:26:57;19.06;73.69
65864;SHT30;52639;51.180;20.460;2022-09-09T15:31:05;18.96;74.03
65864;SHT30;52639;51.180;20.460;2022-09-09T15:35:08;18.86;74.06
65864;SHT30;52639;51.180;20.460;2022-09-09T15:39:12;18.77;74.33
65864;SHT30;52639;51.180;20.460;2022-09-09T15:43:17;18.74;74.31
65864;SHT30;52639;51.180;20.460;2022-09-09T15:47:21;18.67;74.51
65864;SHT30;52639;51.180;20.460;2022-09-09T15:51:25;18.57;74.74
65864;SHT30;52639;51.180;20.460;2022-09-09T15:55:28;18.52;74.87
65864;SHT30;52639;51.180;20.460;2022-09-09T15:59:31;18.50;75.06
65864;SHT30;52639;51.180;20.460;2022-09-09T16:03:36;18.40;75.33
65864;SHT30;52639;51.180;20.460;2022-09-09T16:07:39;18.36;75.62
65864;SHT30;52639;51.180;20.460;2022-09-09T16:11:43;18.32;75.74
65864;SHT30;52639;51.180;20.460;2022-09-09T16:15:53;18.24;76.12
65864;SHT30;52639;51.180;20.460;2022-09-09T16:19:57;18.09;76.81
65864;SHT30;52639;51.180;20.460;2022-09-09T16:24:01;17.95;76.92
65864;SHT30;52639;51.180;20.460;2022-09-09T16:28:04;17.79;77.83
65864;SHT30;52639;51.180;20.460;2022-09-09T16:32:07;17.67;78.77
65864;SHT30;52639;51.180;20.460;2022-09-09T16:36:12;17.55;78.47
65864;SHT30;52639;51.180;20.460;2022-09-09T16:40:16;17.37;78.96
65864;SHT30;52639;51.180;20.460;2022-09-09T16:44:18;17.21;79.01
65864;SHT30;52639;51.180;20.460;2022-09-09T16:48:21;17.10;79.21
65864;SHT30;52639;51.180;20.460;2022-09-09T16:52:25;16.96;80.05
65864;SHT30;52639;51.180;20.460;2022-09-09T16:56:29;16.76;79.71
65864;SHT30;52639;51.180;20.460;2022-09-09T17:00:32;16.63;79.83
65864;SHT30;52639;51.180;20.460;2022-09-09T17:04:36;16.53;79.98
65864;SHT30;52639;51.180;20.460;2022-09-09T17:08:41;16.41;81.34
65864;SHT30;52639;51.180;20.460;2022-09-09T17:12:44;16.32;80.51
65864;SHT30;52639;51.180;20.460;2022-09-09T17:16:46;16.21;80.68
65864;SHT30;52639;51.180;20.460;2022-09-09T17:20:49;16.02;81.04
65864;SHT30;52639;51.180;20.460;2022-09-09T17:24:53;16.00;81.72
65864;SHT30;52639;51.180;20.460;2022-09-09T17:28:56;15.94;81.81
65864;SHT30;52639;51.180;20.460;2022-09-09T17:32:59;15.88;81.38
65864;SHT30;52639;51.180;20.460;2022-09-09T17:37:02;15.75;81.59
65864;SHT30;52639;51.180;20.460;2022-09-09T17:41:09;15.70;82.04
65864;SHT30;52639;51.180;20.460;2022-09-09T17:45:13;15.54;82.26
65864;SHT30;52639;51.180;20.460;2022-09-09T17:49:17;15.53;84.21
65864;SHT30;52639;51.180;20.460;2022-09-09T17:53:20;15.38;83.25
65864;SHT30;52639;51.180;20.460;2022-09-09T17:57:24;15.31;82.98
65864;SHT30;52639;51.180;20.460;2022-09-09T18:01:28;15.30;82.80
65864;SHT30;52639;51.180;20.460;2022-09-09T18:05:35;15.27;83.28
65864;SHT30;52639;51.180;20.460;2022-09-09T18:09:40;15.13;83.12
65864;SHT30;52639;51.180;20.460;2022-09-09T18:13:49;15.08;83.38
65864;SHT30;52639;51.180;20.460;2022-09-09T18:17:53;14.99;83.38
65864;SHT30;52639;51.180;20.460;2022-09-09T18:21:55;15.03;84.93
65864;SHT30;52639;51.180;20.460;2022-09-09T18:25:58;15.00;86.60
65864;SHT30;52639;51.180;20.460;2022-09-09T18:30:03;14.90;85.18
65864;SHT30;52639;51.180;20.460;2022-09-09T18:34:07;14.79;85.35
65864;SHT30;52639;51.180;20.460;2022-09-09T18:38:10;14.71;85.61
65864;SHT30;52639;51.180;20.460;2022-09-09T18:42:13;14.63;85.61
65864;SHT30;52639;51.180;20.460;2022-09-09T18:46:17;14.53;84.66
65864;SHT30;52639;51.180;20.460;2022-09-09T18:50:21;14.45;85.13
65864;SHT30;52639;51.180;20.460;2022-09-09T18:54:25;14.36;84.85
65864;SHT30;52639;51.180;20.460;2022-09-09T18:58:30;14.36;85.00
65864;SHT30;52639;51.180;20.460;2022-09-09T19:02:36;14.33;85.49
65864;SHT30;52639;51.180;20.460;2022-09-09T19:06:44;14.32;86.54
65864;SHT30;52639;51.180;20.460;2022-09-09T19:10:47;14.31;90.39
65864;SHT30;52639;51.180;20.460;2022-09-09T19:14:51;14.19;87.57
65864;SHT30;52639;51.180;20.460;2022-09-09T19:18:57;14.07;86.61
65864;SHT30;52639;51.180;20.460;2022-09-09T19:23:00;13.98;86.36
65864;SHT30;52639;51.180;20.460;2022-09-09T19:27:05;13.98;88.03
65864;SHT30;52639;51.180;20.460;2022-09-09T19:31:10;13.97;89.41
65864;SHT30;52639;51.180;20.460;2022-09-09T19:35:18;13.92;87.56
65864;SHT30;52639;51.180;20.460;2022-09-09T19:39:21;13.88;86.58
65864;SHT30;52639;51.180;20.460;2022-09-09T19:43:23;13.87;87.61
65864;SHT30;52639;51.180;20.460;2022-09-09T19:47:29;13.87;89.65
65864;SHT30;52639;51.180;20.460;2022-09-09T19:51:34;13.85;88.68
65864;SHT30;52639;51.180;20.460;2022-09-09T19:55:38;13.79;87.43
65864;SHT30;52639;51.180;20.460;2022-09-09T19:59:41;13.79;87.95
65864;SHT30;52639;51.180;20.460;2022-09-09T20:03:46;13.77;88.25
65864;SHT30;52639;51.180;20.460;2022-09-09T20:07:51;13.78;88.85
65864;SHT30;52639;51.180;20.460;2022-09-09T20:11:54;13.78;89.93
65864;SHT30;52639;51.180;20.460;2022-09-09T20:15:57;13.79;91.85
65864;SHT30;52639;51.180;20.460;2022-09-09T20:20:02;13.77;89.09
65864;SHT30;52639;51.180;20.460;2022-09-09T20:24:09;13.78;89.07
65864;SHT30;52639;51.180;20.460;2022-09-09T20:28:13;13.87;88.86
65864;SHT30;52639;51.180;20.460;2022-09-09T20:32:16;13.88;89.44
65864;SHT30;52639;51.180;20.460;2022-09-09T20:36:20;13.89;90.59
65864;SHT30;52639;51.180;20.460;2022-09-09T20:40:26;13.88;89.36
65864;SHT30;52639;51.180;20.460;2022-09-09T20:44:31;13.92;91.68
65864;SHT30;52639;51.180;20.460;2022-09-09T20:48:33;13.91;91.08
65864;SHT30;52639;51.180;20.460;2022-09-09T20:52:36;13.97;92.54
65864;SHT30;52639;51.180;20.460;2022-09-09T20:56:41;13.94;92.58
65864;SHT30;52639;51.180;20.460;2022-09-09T21:00:45;13.97;91.30
65864;SHT30;52639;51.180;20.460;2022-09-09T21:04:48;13.95;90.49
65864;SHT30;52639;51.180;20.460;2022-09-09T21:08:51;13.97;90.33
65864;SHT30;52639;51.180;20.460;2022-09-09T21:12:55;14.01;89.36
65864;SHT30;52639;51.180;20.460;2022-09-09T21:16:58;14.02;89.86
65864;SHT30;52639;51.180;20.460;2022-09-09T21:21:01;14.05;92.98
65864;SHT30;52639;51.180;20.460;2022-09-09T21:25:04;14.02;93.03
65864;SHT30;52639;51.180;20.460;2022-09-09T21:29:09;14.01;92.02
65864;SHT30;52639;51.180;20.460;2022-09-09T21:33:13;13.98;90.50
65864;SHT30;52639;51.180;20.460;2022-09-09T21:37:15;13.98;91.28
65864;SHT30;52639;51.180;20.460;2022-09-09T21:41:18;14.01;92.40
65864;SHT30;52639;51.180;20.460;2022-09-09T21:45:22;14.04;90.70
65864;SHT30;52639;51.180;20.460;2022-09-09T21:49:25;14.07;89.88
65864;SHT30;52639;51.180;20.460;2022-09-09T21:53:28;14.08;89.82
65864;SHT30;52639;51.180;20.460;2022-09-09T21:57:32;14.07;89.36
65864;SHT30;52639;51.180;20.460;2022-09-09T22:01:36;14.02;89.79
65864;SHT30;52639;51.180;20.460;2022-09-09T22:05:41;13.94;91.72
65864;SHT30;52639;51.180;20.460;2022-09-09T22:09:44;13.89;90.93
65864;SHT30;52639;51.180;20.460;2022-09-09T22:13:47;13.84;91.31
65864;SHT30;52639;51.180;20.460;2022-09-09T22:17:51;13.85;90.85
65864;SHT30;52639;51.180;20.460;2022-09-09T22:21:54;13.88;89.68
65864;SHT30;52639;51.180;20.460;2022-09-09T22:25:56;13.91;91.45
65864;SHT30;52639;51.180;20.460;2022-09-09T22:29:59;13.92;89.38
65864;SHT30;52639;51.180;20.460;2022-09-09T22:34:03;13.98;89.43
65864;SHT30;52639;51.180;20.460;2022-09-09T22:38:05;14.00;90.17
65864;SHT30;52639;51.180;20.460;2022-09-09T22:42:08;13.98;91.42
65864;SHT30;52639;51.180;20.460;2022-09-09T22:46:10;13.97;92.01
65864;SHT30;52639;51.180;20.460;2022-09-09T22:50:14;13.95;90.03
65864;SHT30;52639;51.180;20.460;2022-09-09T22:54:17;13.94;89.47
65864;SHT30;52639;51.180;20.460;2022-09-09T22:58:21;13.95;89.94
65864;SHT30;52639;51.180;20.460;2022-09-09T23:02:24;13.92;89.46
65864;SHT30;52639;51.180;20.460;2022-09-09T23:06:28;13.94;90.27
65864;SHT30;52639;51.180;20.460;2022-09-09T23:10:31;13.95;91.34
65864;SHT30;52639;51.180;20.460;2022-09-09T23:14:34;13.92;90.83
65864;SHT30;52639;51.180;20.460;2022-09-09T23:18:36;13.88;89.73
65864;SHT30;52639;51.180;20.460;2022-09-09T23:22:41;13.88;89.84
65864;SHT30;52639;51.180;20.460;2022-09-09T23:26:44;13.84;89.66
65864;SHT30;52639;51.180;20.460;2022-09-09T23:30:47;13.82;89.37
65864;SHT30;52639;51.180;20.460;2022-09-09T23:34:50;13.77;90.58
65864;SHT30;52639;51.180;20.460;2022-09-09T23:38:54;13.68;90.75
65864;SHT30;52639;51.180;20.460;2022-09-09T23:42:57;13.63;92.67
65864;SHT30;52639;51.180;20.460;2022-09-09T23:47:00;13.60;90.78
65864;SHT30;52639;51.180;20.460;2022-09-09T23:51:06;13.56;90.35
65864;SHT30;52639;51.180;20.460;2022-09-09T23:55:10;13.58;90.48
65864;SHT30;52639;51.180;20.460;2022-09-09T23:59:13;13.54;89.94
